sensor_id;sensor_type;location;lat;lon;timestamp;P1;durP1;ratioP1;P2;durP2;ratioP2
9160;SDS011;4615;51.340;8.288;2023-12-28T00:01:42;3.73;;;1.93;;
9160;SDS011;4615;51.340;8.288;2023-12-28T00:04:09;2.30;;;2.05;;
9160;SDS011;4615;51.340;8.288;2023-12-28T00:06:36;2.20;;;1.80;;
9160;SDS011;4615;51.340;8.288;2023-12-28T00:09:02;2.73;;;2.00;;
9160;SDS011;4615;51.340;8.288;2023-12-28T00:11:29;2.25;;;1.90;;
9160;SDS011;4615;51.340;8.288;2023-12-28T00:13:55;3.13;;;1.90;;
9160;SDS011;4615;51.340;8.288;2023-12-28T00:16:21;3.20;;;1.92;;
9160;SDS011;4615;51.340;8.288;2023-12-28T00:18:48;2.58;;;2.05;;
9160;SDS011;4615;51.340;8.288;2023-12-28T00:21:15;2.92;;;2.10;;
9160;SDS011;4615;51.340;8.288;2023-12-28T00:23:42;3.53;;;2.25;;
9160;SDS011;4615;51.340;8.288;2023-12-28T00:26:08;2.92;;;2.15;;
9160;SDS011;4615;51.340;8.288;2023-12-28T00:28:35;2.25;;;1.92;;
9160;SDS011;4615;51.340;8.288;2023-12-28T00:31:01;3.00;;;2.20;;
9160;SDS011;4615;51.340;8.288;2023-12-28T00:33:28;3.42;;;2.10;;
9160;SDS011;4615;51.340;8.288;2023-12-28T00:35:54;3.05;;;1.95;;
9160;SDS011;4615;51.340;8.288;2023-12-28T00:38:22;2.88;;;2.28;;
9160;SDS011;4615;51.340;8.288;2023-12-28T00:40:48;3.58;;;2.33;;
9160;SDS011;4615;51.340;8.288;2023-12-28T00:43:14;2.97;;;2.10;;
9160;SDS011;4615;51.340;8.288;2023-12-28T00:45:41;2.75;;;2.00;;
9160;SDS011;4615;51.340;8.288;2023-12-28T00:48:07;3.33;;;2.00;;
9160;SDS011;4615;51.340;8.288;2023-12-28T00:50:34;3.25;;;2.13;;
9160;SDS011;4615;51.340;8.288;2023-12-28T00:53:00;2.95;;;2.25;;
9160;SDS011;4615;51.340;8.288;2023-12-28T00:55:28;2.80;;;2.30;;
9160;SDS011;4615;51.340;8.288;2023-12-28T00:57:54;4.20;;;2.30;;
9160;SDS011;4615;51.340;8.288;2023-12-28T01:00:21;3.05;;;2.20;;
9160;SDS011;4615;51.340;8.288;2023-12-28T01:02:47;3.17;;;2.15;;
9160;SDS011;4615;51.340;8.288;2023-12-28T01:05:14;2.40;;;2.20;;
9160;SDS011;4615;51.340;8.288;2023-12-28T01:07:40;3.55;;;2.38;;
9160;SDS011;4615;51.340;8.288;2023-12-28T01:10:07;4.55;;;2.45;;
9160;SDS011;4615;51.340;8.288;2023-12-28T01:12:34;3.78;;;2.60;;
9160;SDS011;4615;51.340;8.288;2023-12-28T01:15:01;3.35;;;2.40;;
9160;SDS011;4615;51.340;8.288;2023-12-28T01:17:27;3.50;;;2.63;;
9160;SDS011;4615;51.340;8.288;2023-12-28T01:19:54;4.05;;;2.65;;
9160;SDS011;4615;51.340;8.288;2023-12-28T01:22:20;3.97;;;2.50;;
9160;SDS011;4615;51.340;8.288;2023-12-28T01:24:46;4.10;;;2.60;;
9160;SDS011;4615;51.340;8.288;2023-12-28T01:27:14;3.30;;;2.33;;
9160;SDS011;4615;51.340;8.288;2023-12-28T01:29:42;3.15;;;2.40;;
9160;SDS011;4615;51.340;8.288;2023-12-28T01:32:08;4.10;;;2.30;;
9160;SDS011;4615;51.340;8.288;2023-12-28T01:34:34;3.35;;;2.72;;
9160;SDS011;4615;51.340;8.288;2023-12-28T01:37:01;3.35;;;2.60;;
9160;SDS011;4615;51.340;8.288;2023-12-28T01:39:27;2.60;;;2.40;;
9160;SDS011;4615;51.340;8.288;2023-12-28T01:41:54;3.08;;;2.60;;
9160;SDS011;4615;51.340;8.288;2023-12-28T01:44:20;3.00;;;2.22;;
9160;SDS011;4615;51.340;8.288;2023-12-28T01:46:48;2.85;;;2.47;;
9160;SDS011;4615;51.340;8.288;2023-12-28T01:49:14;3.60;;;2.60;;
9160;SDS011;4615;51.340;8.288;2023-12-28T01:51:41;2.78;;;2.35;;
9160;SDS011;4615;51.340;8.288;2023-12-28T01:54:08;3.50;;;2.42;;
9160;SDS011;4615;51.340;8.288;2023-12-28T01:56:35;2.63;;;2.20;;
9160;SDS011;4615;51.340;8.288;2023-12-28T01:59:01;3.38;;;2.45;;
9160;SDS011;4615;51.340;8.288;2023-12-28T02:01:28;3.03;;;2.55;;
9160;SDS011;4615;51.340;8.288;2023-12-28T02:03:55;2.95;;;2.45;;
9160;SDS011;4615;51.340;8.288;2023-12-28T02:06:23;3.67;;;2.40;;
9160;SDS011;4615;51.340;8.288;2023-12-28T02:08:49;2.80;;;2.42;;
9160;SDS011;4615;51.340;8.288;2023-12-28T02:11:15;3.60;;;2.80;;
9160;SDS011;4615;51.340;8.288;2023-12-28T02:13:43;4.40;;;2.50;;
9160;SDS011;4615;51.340;8.288;2023-12-28T02:16:10;3.30;;;2.60;;
9160;SDS011;4615;51.340;8.288;2023-12-28T02:18:38;2.95;;;2.42;;
9160;SDS011;4615;51.340;8.288;2023-12-28T02:21:07;3.33;;;2.70;;
9160;SDS011;4615;51.340;8.288;2023-12-28T02:23:34;3.15;;;2.70;;
9160;SDS011;4615;51.340;8.288;2023-12-28T02:26:02;3.17;;;2.67;;
9160;SDS011;4615;51.340;8.288;2023-12-28T02:28:28;3.70;;;2.67;;
9160;SDS011;4615;51.340;8.288;2023-12-28T02:30:54;2.88;;;2.50;;
9160;SDS011;4615;51.340;8.288;2023-12-28T02:33:22;3.03;;;2.63;;
9160;SDS011;4615;51.340;8.288;2023-12-28T02:35:51;4.05;;;2.75;;
9160;SDS011;4615;51.340;8.288;2023-12-28T02:38:18;2.65;;;2.45;;
9160;SDS011;4615;51.340;8.288;2023-12-28T02:40:45;2.70;;;2.50;;
9160;SDS011;4615;51.340;8.288;2023-12-28T02:43:13;2.70;;;2.50;;
9160;SDS011;4615;51.340;8.288;2023-12-28T02:45:39;3.47;;;2.90;;
9160;SDS011;4615;51.340;8.288;2023-12-28T02:48:06;3.55;;;2.83;;
9160;SDS011;4615;51.340;8.288;2023-12-28T02:50:32;3.47;;;2.78;;
9160;SDS011;4615;51.340;8.288;2023-12-28T02:52:59;3.28;;;2.80;;
9160;SDS011;4615;51.340;8.288;2023-12-28T02:55:25;4.07;;;2.87;;
9160;SDS011;4615;51.340;8.288;2023-12-28T02:57:53;3.10;;;2.70;;
9160;SDS011;4615;51.340;8.288;2023-12-28T03:00:21;2.92;;;2.63;;
9160;SDS011;4615;51.340;8.288;2023-12-28T03:02:47;3.25;;;2.92;;
9160;SDS011;4615;51.340;8.288;2023-12-28T03:05:14;3.38;;;2.47;;
9160;SDS011;4615;51.340;8.288;2023-12-28T03:07:40;3.85;;;2.58;;
9160;SDS011;4615;51.340;8.288;2023-12-28T03:10:08;3.27;;;2.70;;
9160;SDS011;4615;51.340;8.288;2023-12-28T03:12:37;3.00;;;2.50;;
9160;SDS011;4615;51.340;8.288;2023-12-28T03:15:04;2.90;;;2.40;;
9160;SDS011;4615;51.340;8.288;2023-12-28T03:17:34;3.53;;;2.77;;
9160;SDS011;4615;51.340;8.288;2023-12-28T03:20:02;2.97;;;2.67;;
9160;SDS011;4615;51.340;8.288;2023-12-28T03:22:28;3.78;;;2.60;;
9160;SDS011;4615;51.340;8.288;2023-12-28T03:24:55;2.72;;;2.30;;
9160;SDS011;4615;51.340;8.288;2023-12-28T03:27:21;3.70;;;2.40;;
9160;SDS011;4615;51.340;8.288;2023-12-28T03:29:47;2.57;;;2.30;;
9160;SDS011;4615;51.340;8.288;2023-12-28T03:32:14;3.35;;;2.60;;
9160;SDS011;4615;51.340;8.288;2023-12-28T03:34:42;3.75;;;2.75;;
9160;SDS011;4615;51.340;8.288;2023-12-28T03:37:08;2.55;;;2.35;;
9160;SDS011;4615;51.340;8.288;2023-12-28T03:39:36;2.60;;;2.38;;
9160;SDS011;4615;51.340;8.288;2023-12-28T03:42:02;2.70;;;2.50;;
9160;SDS011;4615;51.340;8.288;2023-12-28T03:44:29;2.58;;;2.38;;
9160;SDS011;4615;51.340;8.288;2023-12-28T03:46:55;2.55;;;2.33;;
9160;SDS011;4615;51.340;8.288;2023-12-28T03:49:21;2.83;;;2.42;;
9160;SDS011;4615;51.340;8.288;2023-12-28T03:51:50;2.60;;;2.40;;
9160;SDS011;4615;51.340;8.288;2023-12-28T03:54:17;2.50;;;2.30;;
9160;SDS011;4615;51.340;8.288;2023-12-28T03:56:43;2.70;;;2.42;;
9160;SDS011;4615;51.340;8.288;2023-12-28T03:59:10;2.92;;;2.63;;
9160;SDS011;4615;51.340;8.288;2023-12-28T04:01:36;3.85;;;2.90;;
9160;SDS011;4615;51.340;8.288;2023-12-28T04:04:02;2.50;;;2.30;;
9160;SDS011;4615;51.340;8.288;2023-12-28T04:06:29;3.08;;;2.47;;
9160;SDS011;4615;51.340;8.288;2023-12-28T04:08:57;2.72;;;2.50;;
9160;SDS011;4615;51.340;8.288;2023-12-28T04:11:23;2.80;;;2.38;;
9160;SDS011;4615;51.340;8.288;2023-12-28T04:13:49;2.75;;;2.53;;
9160;SDS011;4615;51.340;8.288;2023-12-28T04:16:16;2.50;;;2.30;;
9160;SDS011;4615;51.340;8.288;2023-12-28T04:18:42;2.70;;;2.47;;
9160;SDS011;4615;51.340;8.288;2023-12-28T04:21:08;2.67;;;2.38;;
9160;SDS011;4615;51.340;8.288;2023-12-28T04:23:35;2.78;;;2.30;;
9160;SDS011;4615;51.340;8.288;2023-12-28T04:26:03;3.55;;;2.40;;
9160;SDS011;4615;51.340;8.288;2023-12-28T04:28:30;2.70;;;2.25;;
9160;SDS011;4615;51.340;8.288;2023-12-28T04:30:56;2.40;;;2.20;;
9160;SDS011;4615;51.340;8.288;2023-12-28T04:33:22;2.40;;;2.20;;
9160;SDS011;4615;51.340;8.288;2023-12-28T04:35:49;2.55;;;2.30;;
9160;SDS011;4615;51.340;8.288;2023-12-28T04:38:15;3.13;;;2.38;;
9160;SDS011;4615;51.340;8.288;2023-12-28T04:40:41;3.13;;;2.28;;
9160;SDS011;4615;51.340;8.288;2023-12-28T04:43:09;2.47;;;2.20;;
9160;SDS011;4615;51.340;8.288;2023-12-28T04:45:35;2.40;;;2.20;;
9160;SDS011;4615;51.340;8.288;2023-12-28T04:48:03;3.35;;;2.30;;
9160;SDS011;4615;51.340;8.288;2023-12-28T04:50:29;3.05;;;2.42;;
9160;SDS011;4615;51.340;8.288;2023-12-28T04:52:55;2.88;;;2.50;;
9160;SDS011;4615;51.340;8.288;2023-12-28T04:55:22;2.42;;;2.22;;
9160;SDS011;4615;51.340;8.288;2023-12-28T04:57:49;2.53;;;2.30;;
9160;SDS011;4615;51.340;8.288;2023-12-28T05:00:17;2.77;;;2.40;;
9160;SDS011;4615;51.340;8.288;2023-12-28T05:02:44;2.70;;;2.40;;
9160;SDS011;4615;51.340;8.288;2023-12-28T05:05:11;3.08;;;2.47;;
9160;SDS011;4615;51.340;8.288;2023-12-28T05:07:37;2.47;;;2.25;;
9160;SDS011;4615;51.340;8.288;2023-12-28T05:10:04;2.57;;;2.37;;
9160;SDS011;4615;51.340;8.288;2023-12-28T05:12:31;3.30;;;2.57;;
9160;SDS011;4615;51.340;8.288;2023-12-28T05:14:57;2.85;;;2.35;;
9160;SDS011;4615;51.340;8.288;2023-12-28T05:17:25;2.92;;;2.40;;
9160;SDS011;4615;51.340;8.288;2023-12-28T05:19:51;2.60;;;2.40;;
9160;SDS011;4615;51.340;8.288;2023-12-28T05:22:17;2.67;;;2.42;;
9160;SDS011;4615;51.340;8.288;2023-12-28T05:24:44;2.50;;;2.30;;
9160;SDS011;4615;51.340;8.288;2023-12-28T05:27:10;2.50;;;2.30;;
9160;SDS011;4615;51.340;8.288;2023-12-28T05:29:36;3.08;;;2.30;;
9160;SDS011;4615;51.340;8.288;2023-12-28T05:32:03;2.63;;;2.30;;
9160;SDS011;4615;51.340;8.288;2023-12-28T05:34:31;2.60;;;2.40;;
9160;SDS011;4615;51.340;8.288;2023-12-28T05:36:57;2.70;;;2.50;;
9160;SDS011;4615;51.340;8.288;2023-12-28T05:39:23;2.97;;;2.60;;
9160;SDS011;4615;51.340;8.288;2023-12-28T05:41:50;2.80;;;2.20;;
9160;SDS011;4615;51.340;8.288;2023-12-28T05:44:16;3.88;;;2.58;;
9160;SDS011;4615;51.340;8.288;2023-12-28T05:46:42;2.85;;;2.55;;
9160;SDS011;4615;51.340;8.288;2023-12-28T05:49:09;2.92;;;2.53;;
9160;SDS011;4615;51.340;8.288;2023-12-28T05:51:39;3.10;;;2.30;;
9160;SDS011;4615;51.340;8.288;2023-12-28T05:54:06;2.67;;;2.40;;
9160;SDS011;4615;51.340;8.288;2023-12-28T05:56:32;2.40;;;2.15;;
9160;SDS011;4615;51.340;8.288;2023-12-28T05:58:59;3.00;;;2.50;;
9160;SDS011;4615;51.340;8.288;2023-12-28T06:01:25;3.17;;;2.60;;
9160;SDS011;4615;51.340;8.288;2023-12-28T06:03:52;2.97;;;2.45;;
9160;SDS011;4615;51.340;8.288;2023-12-28T06:06:18;2.60;;;2.40;;
9160;SDS011;4615;51.340;8.288;2023-12-28T06:08:47;3.38;;;2.60;;
9160;SDS011;4615;51.340;8.288;2023-12-28T06:11:13;3.33;;;2.58;;
9160;SDS011;4615;51.340;8.288;2023-12-28T06:13:39;3.08;;;2.60;;
9160;SDS011;4615;51.340;8.288;2023-12-28T06:16:06;3.05;;;2.60;;
9160;SDS011;4615;51.340;8.288;2023-12-28T06:18:32;2.75;;;2.25;;
9160;SDS011;4615;51.340;8.288;2023-12-28T06:20:59;2.78;;;2.47;;
9160;SDS011;4615;51.340;8.288;2023-12-28T06:23:25;3.25;;;2.70;;
9160;SDS011;4615;51.340;8.288;2023-12-28T06:25:53;3.60;;;2.67;;
9160;SDS011;4615;51.340;8.288;2023-12-28T06:28:19;2.63;;;2.42;;
9160;SDS011;4615;51.340;8.288;2023-12-28T06:30:46;3.05;;;2.40;;
9160;SDS011;4615;51.340;8.288;2023-12-28T06:33:12;3.42;;;2.50;;
9160;SDS011;4615;51.340;8.288;2023-12-28T06:35:38;2.97;;;2.60;;
9160;SDS011;4615;51.340;8.288;2023-12-28T06:38:05;4.35;;;2.58;;
9160;SDS011;4615;51.340;8.288;2023-12-28T06:40:31;2.97;;;2.42;;
9160;SDS011;4615;51.340;8.288;2023-12-28T06:42:59;3.30;;;2.50;;
9160;SDS011;4615;51.340;8.288;2023-12-28T06:45:25;3.10;;;2.55;;
9160;SDS011;4615;51.340;8.288;2023-12-28T06:47:53;3.57;;;2.73;;
9160;SDS011;4615;51.340;8.288;2023-12-28T06:50:19;2.60;;;2.40;;
9160;SDS011;4615;51.340;8.288;2023-12-28T06:52:45;2.88;;;2.60;;
9160;SDS011;4615;51.340;8.288;2023-12-28T06:55:12;3.03;;;2.60;;
9160;SDS011;4615;51.340;8.288;2023-12-28T06:57:38;3.17;;;2.80;;
9160;SDS011;4615;51.340;8.288;2023-12-28T07:00:07;2.88;;;2.60;;
9160;SDS011;4615;51.340;8.288;2023-12-28T07:02:33;3.75;;;2.65;;
9160;SDS011;4615;51.340;8.288;2023-12-28T07:05:00;3.78;;;2.65;;
9160;SDS011;4615;51.340;8.288;2023-12-28T07:07:26;3.08;;;2.58;;
9160;SDS011;4615;51.340;8.288;2023-12-28T07:09:53;2.83;;;2.50;;
9160;SDS011;4615;51.340;8.288;2023-12-28T07:12:19;3.80;;;2.60;;
9160;SDS011;4615;51.340;8.288;2023-12-28T07:14:46;3.75;;;2.83;;
9160;SDS011;4615;51.340;8.288;2023-12-28T07:17:14;2.80;;;2.60;;
9160;SDS011;4615;51.340;8.288;2023-12-28T07:19:42;3.33;;;2.75;;
9160;SDS011;4615;51.340;8.288;2023-12-28T07:22:08;3.00;;;2.80;;
9160;SDS011;4615;51.340;8.288;2023-12-28T07:24:34;3.50;;;2.77;;
9160;SDS011;4615;51.340;8.288;2023-12-28T07:27:01;4.97;;;2.80;;
9160;SDS011;4615;51.340;8.288;2023-12-28T07:29:27;3.37;;;2.67;;
9160;SDS011;4615;51.340;8.288;2023-12-28T07:31:54;3.08;;;2.55;;
9160;SDS011;4615;51.340;8.288;2023-12-28T07:34:22;3.67;;;2.58;;
9160;SDS011;4615;51.340;8.288;2023-12-28T07:36:48;4.53;;;2.70;;
9160;SDS011;4615;51.340;8.288;2023-12-28T07:39:14;2.78;;;2.55;;
9160;SDS011;4615;51.340;8.288;2023-12-28T07:41:41;4.20;;;2.42;;
9160;SDS011;4615;51.340;8.288;2023-12-28T07:44:07;2.83;;;2.50;;
9160;SDS011;4615;51.340;8.288;2023-12-28T07:46:33;3.22;;;2.50;;
9160;SDS011;4615;51.340;8.288;2023-12-28T07:49:00;4.07;;;2.78;;
9160;SDS011;4615;51.340;8.288;2023-12-28T07:51:27;3.60;;;2.65;;
9160;SDS011;4615;51.340;8.288;2023-12-28T07:53:54;3.28;;;2.60;;
9160;SDS011;4615;51.340;8.288;2023-12-28T07:56:20;2.70;;;2.50;;
9160;SDS011;4615;51.340;8.288;2023-12-28T07:58:46;2.85;;;2.55;;
9160;SDS011;4615;51.340;8.288;2023-12-28T08:01:13;3.90;;;2.70;;
9160;SDS011;4615;51.340;8.288;2023-12-28T08:03:39;2.95;;;2.33;;
9160;SDS011;4615;51.340;8.288;2023-12-28T08:06:05;3.78;;;2.70;;
9160;SDS011;4615;51.340;8.288;2023-12-28T08:08:33;4.10;;;2.60;;
9160;SDS011;4615;51.340;8.288;2023-12-28T08:11:00;3.40;;;2.40;;
9160;SDS011;4615;51.340;8.288;2023-12-28T08:13:26;3.28;;;2.60;;
9160;SDS011;4615;51.340;8.288;2023-12-28T08:15:52;3.40;;;2.42;;
9160;SDS011;4615;51.340;8.288;2023-12-28T08:18:19;3.58;;;2.50;;
9160;SDS011;4615;51.340;8.288;2023-12-28T08:20:47;2.97;;;2.30;;
9160;SDS011;4615;51.340;8.288;2023-12-28T08:23:14;3.25;;;2.50;;
9160;SDS011;4615;51.340;8.288;2023-12-28T08:25:42;3.67;;;2.40;;
9160;SDS011;4615;51.340;8.288;2023-12-28T08:28:08;3.60;;;2.63;;
9160;SDS011;4615;51.340;8.288;2023-12-28T08:30:35;3.22;;;2.55;;
9160;SDS011;4615;51.340;8.288;2023-12-28T08:33:01;2.97;;;2.40;;
9160;SDS011;4615;51.340;8.288;2023-12-28T08:35:28;3.67;;;2.50;;
9160;SDS011;4615;51.340;8.288;2023-12-28T08:37:54;2.78;;;2.35;;
9160;SDS011;4615;51.340;8.288;2023-12-28T08:40:21;3.58;;;2.42;;
9160;SDS011;4615;51.340;8.288;2023-12-28T08:42:48;2.93;;;2.23;;
9160;SDS011;4615;51.340;8.288;2023-12-28T08:45:15;3.55;;;2.40;;
9160;SDS011;4615;51.340;8.288;2023-12-28T08:47:41;5.03;;;2.53;;
9160;SDS011;4615;51.340;8.288;2023-12-28T08:50:08;3.47;;;2.40;;
9160;SDS011;4615;51.340;8.288;2023-12-28T08:52:34;2.97;;;2.23;;
9160;SDS011;4615;51.340;8.288;2023-12-28T08:55:01;2.75;;;2.33;;
9160;SDS011;4615;51.340;8.288;2023-12-28T08:57:27;3.35;;;2.42;;
9160;SDS011;4615;51.340;8.288;2023-12-28T08:59:55;3.30;;;2.28;;
9160;SDS011;4615;51.340;8.288;2023-12-28T09:02:22;3.95;;;2.28;;
9160;SDS011;4615;51.340;8.288;2023-12-28T09:04:48;2.38;;;2.10;;
9160;SDS011;4615;51.340;8.288;2023-12-28T09:07:15;2.88;;;2.35;;
9160;SDS011;4615;51.340;8.288;2023-12-28T09:09:42;3.83;;;2.72;;
9160;SDS011;4615;51.340;8.288;2023-12-28T09:12:08;4.30;;;2.30;;
9160;SDS011;4615;51.340;8.288;2023-12-28T09:14:34;4.13;;;2.60;;
9160;SDS011;4615;51.340;8.288;2023-12-28T09:17:02;3.90;;;2.70;;
9160;SDS011;4615;51.340;8.288;2023-12-28T09:19:28;3.55;;;2.45;;
9160;SDS011;4615;51.340;8.288;2023-12-28T09:21:55;4.37;;;2.90;;
9160;SDS011;4615;51.340;8.288;2023-12-28T09:24:21;4.38;;;2.75;;
9160;SDS011;4615;51.340;8.288;2023-12-28T09:26:48;4.78;;;2.60;;
9160;SDS011;4615;51.340;8.288;2023-12-28T09:29:14;5.20;;;2.90;;
9160;SDS011;4615;51.340;8.288;2023-12-28T09:31:40;4.03;;;2.70;;
9160;SDS011;4615;51.340;8.288;2023-12-28T09:34:08;5.23;;;3.00;;
9160;SDS011;4615;51.340;8.288;2023-12-28T09:36:34;5.65;;;3.30;;
9160;SDS011;4615;51.340;8.288;2023-12-28T09:39:01;5.40;;;3.15;;
9160;SDS011;4615;51.340;8.288;2023-12-28T09:41:30;5.40;;;2.83;;
9160;SDS011;4615;51.340;8.288;2023-12-28T09:43:58;4.63;;;2.83;;
9160;SDS011;4615;51.340;8.288;2023-12-28T09:46:25;4.50;;;2.63;;
9160;SDS011;4615;51.340;8.288;2023-12-28T09:48:52;4.25;;;2.70;;
9160;SDS011;4615;51.340;8.288;2023-12-28T09:51:20;4.03;;;2.70;;
9160;SDS011;4615;51.340;8.288;2023-12-28T09:53:46;4.72;;;2.70;;
9160;SDS011;4615;51.340;8.288;2023-12-28T09:56:13;4.90;;;2.85;;
9160;SDS011;4615;51.340;8.288;2023-12-28T09:58:40;4.93;;;2.70;;
9160;SDS011;4615;51.340;8.288;2023-12-28T10:01:06;4.38;;;2.60;;
9160;SDS011;4615;51.340;8.288;2023-12-28T10:03:33;3.13;;;2.25;;
9160;SDS011;4615;51.340;8.288;2023-12-28T10:06:00;3.42;;;2.55;;
9160;SDS011;4615;51.340;8.288;2023-12-28T10:08:27;4.40;;;2.70;;
9160;SDS011;4615;51.340;8.288;2023-12-28T10:10:54;6.23;;;3.00;;
9160;SDS011;4615;51.340;8.288;2023-12-28T10:13:20;4.95;;;2.60;;
9160;SDS011;4615;51.340;8.288;2023-12-28T10:15:47;6.72;;;2.97;;
9160;SDS011;4615;51.340;8.288;2023-12-28T10:18:16;5.38;;;2.97;;
9160;SDS011;4615;51.340;8.288;2023-12-28T10:20:50;4.90;;;2.70;;
9160;SDS011;4615;51.340;8.288;2023-12-28T10:23:15;4.07;;;2.55;;
9160;SDS011;4615;51.340;8.288;2023-12-28T10:25:43;4.18;;;2.70;;
9160;SDS011;4615;51.340;8.288;2023-12-28T10:28:10;4.30;;;2.35;;
9160;SDS011;4615;51.340;8.288;2023-12-28T10:30:37;5.22;;;2.58;;
9160;SDS011;4615;51.340;8.288;2023-12-28T10:33:04;4.95;;;2.75;;
9160;SDS011;4615;51.340;8.288;2023-12-28T10:35:31;5.72;;;2.97;;
9160;SDS011;4615;51.340;8.288;2023-12-28T10:37:58;3.97;;;2.92;;
9160;SDS011;4615;51.340;8.288;2023-12-28T10:40:25;4.07;;;2.40;;
9160;SDS011;4615;51.340;8.288;2023-12-28T10:42:54;4.72;;;2.65;;
9160;SDS011;4615;51.340;8.288;2023-12-28T10:45:21;5.13;;;2.50;;
9160;SDS011;4615;51.340;8.288;2023-12-28T10:47:52;5.05;;;2.80;;
9160;SDS011;4615;51.340;8.288;2023-12-28T10:50:20;6.63;;;2.63;;
9160;SDS011;4615;51.340;8.288;2023-12-28T10:52:46;4.05;;;2.40;;
9160;SDS011;4615;51.340;8.288;2023-12-28T10:55:19;3.55;;;2.30;;
9160;SDS011;4615;51.340;8.288;2023-12-28T10:57:49;4.53;;;2.30;;
9160;SDS011;4615;51.340;8.288;2023-12-28T11:00:22;4.68;;;2.22;;
9160;SDS011;4615;51.340;8.288;2023-12-28T11:02:51;6.73;;;2.43;;
9160;SDS011;4615;51.340;8.288;2023-12-28T11:05:18;4.43;;;2.28;;
9160;SDS011;4615;51.340;8.288;2023-12-28T11:07:45;4.20;;;2.22;;
9160;SDS011;4615;51.340;8.288;2023-12-28T11:10:12;5.85;;;2.22;;
9160;SDS011;4615;51.340;8.288;2023-12-28T11:12:39;3.92;;;2.10;;
9160;SDS011;4615;51.340;8.288;2023-12-28T11:15:06;3.75;;;2.20;;
9160;SDS011;4615;51.340;8.288;2023-12-28T11:17:35;3.85;;;2.30;;
9160;SDS011;4615;51.340;8.288;2023-12-28T11:20:01;4.40;;;2.25;;
9160;SDS011;4615;51.340;8.288;2023-12-28T11:22:30;3.45;;;1.83;;
9160;SDS011;4615;51.340;8.288;2023-12-28T11:24:58;3.45;;;2.08;;
9160;SDS011;4615;51.340;8.288;2023-12-28T11:27:25;4.47;;;2.00;;
9160;SDS011;4615;51.340;8.288;2023-12-28T11:29:51;3.93;;;2.20;;
9160;SDS011;4615;51.340;8.288;2023-12-28T11:32:19;4.15;;;2.00;;
9160;SDS011;4615;51.340;8.288;2023-12-28T11:34:48;3.72;;;2.00;;
9160;SDS011;4615;51.340;8.288;2023-12-28T11:37:22;5.20;;;2.00;;
9160;SDS011;4615;51.340;8.288;2023-12-28T11:39:49;4.33;;;2.00;;
9160;SDS011;4615;51.340;8.288;2023-12-28T11:42:18;3.88;;;2.33;;
9160;SDS011;4615;51.340;8.288;2023-12-28T11:44:45;5.70;;;2.15;;
9160;SDS011;4615;51.340;8.288;2023-12-28T11:47:12;4.50;;;2.05;;
9160;SDS011;4615;51.340;8.288;2023-12-28T11:49:38;4.10;;;1.98;;
9160;SDS011;4615;51.340;8.288;2023-12-28T11:52:07;5.78;;;2.40;;
9160;SDS011;4615;51.340;8.288;2023-12-28T11:54:34;4.72;;;2.25;;
9160;SDS011;4615;51.340;8.288;2023-12-28T11:57:00;4.63;;;2.30;;
9160;SDS011;4615;51.340;8.288;2023-12-28T11:59:27;4.35;;;2.33;;
9160;SDS011;4615;51.340;8.288;2023-12-28T12:01:53;5.15;;;2.42;;
9160;SDS011;4615;51.340;8.288;2023-12-28T12:04:20;3.42;;;1.90;;
9160;SDS011;4615;51.340;8.288;2023-12-28T12:06:46;3.55;;;1.90;;
9160;SDS011;4615;51.340;8.288;2023-12-28T12:09:15;4.40;;;2.08;;
9160;SDS011;4615;51.340;8.288;2023-12-28T12:11:43;3.75;;;2.17;;
9160;SDS011;4615;51.340;8.288;2023-12-28T12:14:09;3.58;;;2.05;;
9160;SDS011;4615;51.340;8.288;2023-12-28T12:16:36;3.97;;;2.17;;
9160;SDS011;4615;51.340;8.288;2023-12-28T12:19:03;3.67;;;2.05;;
9160;SDS011;4615;51.340;8.288;2023-12-28T12:21:29;3.03;;;1.92;;
9160;SDS011;4615;51.340;8.288;2023-12-28T12:23:55;4.17;;;1.90;;
9160;SDS011;4615;51.340;8.288;2023-12-28T12:26:23;3.70;;;2.13;;
9160;SDS011;4615;51.340;8.288;2023-12-28T12:28:51;4.30;;;2.10;;
9160;SDS011;4615;51.340;8.288;2023-12-28T12:31:17;4.20;;;2.13;;
9160;SDS011;4615;51.340;8.288;2023-12-28T12:33:44;3.97;;;2.27;;
9160;SDS011;4615;51.340;8.288;2023-12-28T12:36:10;3.58;;;1.95;;
9160;SDS011;4615;51.340;8.288;2023-12-28T12:38:36;3.42;;;1.95;;
9160;SDS011;4615;51.340;8.288;2023-12-28T12:41:03;4.00;;;2.08;;
9160;SDS011;4615;51.340;8.288;2023-12-28T12:43:31;4.50;;;1.90;;
9160;SDS011;4615;51.340;8.288;2023-12-28T12:45:57;3.10;;;1.80;;
9160;SDS011;4615;51.340;8.288;2023-12-28T12:48:25;3.90;;;1.98;;
9160;SDS011;4615;51.340;8.288;2023-12-28T12:50:51;4.18;;;2.20;;
9160;SDS011;4615;51.340;8.288;2023-12-28T12:53:18;3.88;;;2.00;;
9160;SDS011;4615;51.340;8.288;2023-12-28T12:55:44;5.10;;;2.42;;
9160;SDS011;4615;51.340;8.288;2023-12-28T12:58:11;3.93;;;2.30;;
9160;SDS011;4615;51.340;8.288;2023-12-28T13:00:39;5.17;;;2.60;;
9160;SDS011;4615;51.340;8.288;2023-12-28T13:03:07;4.32;;;2.13;;
9160;SDS011;4615;51.340;8.288;2023-12-28T13:05:34;4.07;;;2.23;;
9160;SDS011;4615;51.340;8.288;2023-12-28T13:08:01;3.65;;;2.17;;
9160;SDS011;4615;51.340;8.288;2023-12-28T13:10:27;4.80;;;2.30;;
9160;SDS011;4615;51.340;8.288;2023-12-28T13:12:54;3.75;;;2.30;;
9160;SDS011;4615;51.340;8.288;2023-12-28T13:15:20;4.40;;;2.20;;
9160;SDS011;4615;51.340;8.288;2023-12-28T13:17:48;3.45;;;2.20;;
9160;SDS011;4615;51.340;8.288;2023-12-28T13:20:14;5.63;;;2.25;;
9160;SDS011;4615;51.340;8.288;2023-12-28T13:22:40;4.32;;;2.13;;
9160;SDS011;4615;51.340;8.288;2023-12-28T13:25:07;4.78;;;3.15;;
9160;SDS011;4615;51.340;8.288;2023-12-28T13:27:33;4.78;;;2.22;;
9160;SDS011;4615;51.340;8.288;2023-12-28T13:29:59;4.18;;;2.10;;
9160;SDS011;4615;51.340;8.288;2023-12-28T13:32:26;3.85;;;2.22;;
9160;SDS011;4615;51.340;8.288;2023-12-28T13:34:54;4.80;;;3.38;;
9160;SDS011;4615;51.340;8.288;2023-12-28T13:37:20;4.93;;;2.63;;
9160;SDS011;4615;51.340;8.288;2023-12-28T13:39:47;3.30;;;2.20;;
9160;SDS011;4615;51.340;8.288;2023-12-28T13:42:13;3.80;;;2.40;;
9160;SDS011;4615;51.340;8.288;2023-12-28T13:44:40;5.30;;;2.60;;
9160;SDS011;4615;51.340;8.288;2023-12-28T13:47:06;4.85;;;2.50;;
9160;SDS011;4615;51.340;8.288;2023-12-28T13:49:33;4.07;;;2.15;;
9160;SDS011;4615;51.340;8.288;2023-12-28T13:52:00;4.60;;;2.22;;
9160;SDS011;4615;51.340;8.288;2023-12-28T13:54:27;4.53;;;2.17;;
9160;SDS011;4615;51.340;8.288;2023-12-28T13:56:54;4.63;;;2.30;;
9160;SDS011;4615;51.340;8.288;2023-12-28T13:59:23;4.10;;;2.47;;
9160;SDS011;4615;51.340;8.288;2023-12-28T14:01:50;6.97;;;2.50;;
9160;SDS011;4615;51.340;8.288;2023-12-28T14:04:16;5.60;;;2.10;;
9160;SDS011;4615;51.340;8.288;2023-12-28T14:06:43;5.10;;;2.20;;
9160;SDS011;4615;51.340;8.288;2023-12-28T14:09:10;4.28;;;2.00;;
9160;SDS011;4615;51.340;8.288;2023-12-28T14:11:37;3.80;;;2.08;;
9160;SDS011;4615;51.340;8.288;2023-12-28T14:14:03;4.30;;;2.15;;
9160;SDS011;4615;51.340;8.288;2023-12-28T14:16:30;3.42;;;1.95;;
9160;SDS011;4615;51.340;8.288;2023-12-28T14:18:56;4.10;;;1.90;;
9160;SDS011;4615;51.340;8.288;2023-12-28T14:21:23;3.63;;;1.85;;
9160;SDS011;4615;51.340;8.288;2023-12-28T14:23:49;21.33;;;2.70;;
9160;SDS011;4615;51.340;8.288;2023-12-28T14:26:18;3.15;;;2.15;;
9160;SDS011;4615;51.340;8.288;2023-12-28T14:28:46;3.85;;;1.90;;
9160;SDS011;4615;51.340;8.288;2023-12-28T14:31:13;4.70;;;2.10;;
9160;SDS011;4615;51.340;8.288;2023-12-28T14:33:40;3.27;;;2.00;;
9160;SDS011;4615;51.340;8.288;2023-12-28T14:36:09;4.35;;;2.28;;
9160;SDS011;4615;51.340;8.288;2023-12-28T14:38:39;4.32;;;2.05;;
9160;SDS011;4615;51.340;8.288;2023-12-28T14:41:05;4.57;;;2.00;;
9160;SDS011;4615;51.340;8.288;2023-12-28T14:43:33;3.55;;;1.92;;
9160;SDS011;4615;51.340;8.288;2023-12-28T14:45:59;4.20;;;2.30;;
9160;SDS011;4615;51.340;8.288;2023-12-28T14:48:25;4.20;;;2.10;;
9160;SDS011;4615;51.340;8.288;2023-12-28T14:50:52;5.55;;;2.15;;
9160;SDS011;4615;51.340;8.288;2023-12-28T14:53:18;4.53;;;2.08;;
9160;SDS011;4615;51.340;8.288;2023-12-28T14:55:44;3.25;;;1.83;;
9160;SDS011;4615;51.340;8.288;2023-12-28T14:58:11;3.83;;;2.00;;
9160;SDS011;4615;51.340;8.288;2023-12-28T15:00:38;3.50;;;1.80;;
9160;SDS011;4615;51.340;8.288;2023-12-28T15:03:05;4.70;;;2.28;;
9160;SDS011;4615;51.340;8.288;2023-12-28T15:05:31;3.88;;;2.10;;
9160;SDS011;4615;51.340;8.288;2023-12-28T15:07:58;6.45;;;2.00;;
9160;SDS011;4615;51.340;8.288;2023-12-28T15:10:25;4.05;;;2.03;;
9160;SDS011;4615;51.340;8.288;2023-12-28T15:12:52;5.85;;;2.20;;